Friend, Kansas
Current Conditions -  °F | °C
As of 8:54 PM on Thursday 18 Dec 2014 (Local Time) from KGCK Reporting Station
Haze Haze  
Wind Chill: 26°   Ceiling: 1200
Heat Index: 32°   Visibility: 6mi
Dew Point: 31°   Wind: 7mph
Humidity: 96%   Direction: 160°SSE
Pressure: 30.15"   Gusts: NA
Location:  38.4822°N, 100.811°W
Report Text: KGCK 190254Z 16006KT 6SM BR OVC012 00/M01 A3015 RMK AO2 SLP231 T00001006 53012
Loading
Personal Weather Stations






























Interactive Weather Map New forecast layout! Learn more

10-Day Weather Forecast

Advertisements
Track Severe Weather on mobile